createdAt,value
2019-03-16T00:00:34.052Z,1002.8
2019-03-16T00:01:35.511Z,1002.9
2019-03-16T00:02:37.302Z,1002.9
2019-03-16T00:03:38.816Z,1002.9
2019-03-16T00:04:40.376Z,1002.9
2019-03-16T00:05:42.037Z,1002.8
2019-03-16T00:06:43.643Z,1002.9
2019-03-16T00:07:45.288Z,1002.9
2019-03-16T00:08:46.816Z,1002.9
2019-03-16T00:09:48.589Z,1002.9
2019-03-16T00:10:50.056Z,1002.9
2019-03-16T00:11:51.927Z,1002.9
2019-03-16T00:12:53.485Z,1002.9
2019-03-16T00:13:55.269Z,1003.0
2019-03-16T00:14:56.915Z,1003.0
2019-03-16T00:15:58.708Z,1002.9
2019-03-16T00:17:00.321Z,1002.9
2019-03-16T00:18:02.008Z,1002.9
2019-03-16T00:19:03.656Z,1002.9
2019-03-16T00:20:05.473Z,1002.9
2019-03-16T00:21:07.238Z,1003.0
2019-03-16T00:22:08.919Z,1002.9
2019-03-16T00:23:10.348Z,1002.9
2019-03-16T00:24:12.003Z,1002.9
2019-03-16T00:25:13.464Z,1002.9
2019-03-16T00:26:15.135Z,1003.1
2019-03-16T00:27:16.726Z,1003.1
2019-03-16T00:28:18.564Z,1003.1
2019-03-16T00:29:20.050Z,1003.2
2019-03-16T00:30:21.921Z,1003.1
2019-03-16T00:31:23.550Z,1003.1
2019-03-16T00:32:25.372Z,1003.1
2019-03-16T00:33:26.982Z,1003.1
2019-03-16T00:34:28.456Z,1003.1
2019-03-16T00:35:30.041Z,1003.0
2019-03-16T00:36:31.931Z,1003.0
2019-03-16T00:37:33.381Z,1003.1
2019-03-16T00:38:35.138Z,1003.1
2019-03-16T00:39:37.051Z,1003.1
2019-03-16T00:40:38.984Z,1003.1
2019-03-16T00:41:40.585Z,1003.1
2019-03-16T00:42:42.280Z,1003.1
2019-03-16T00:43:44.102Z,1003.1
2019-03-16T00:44:45.768Z,1003.1
2019-03-16T00:45:47.238Z,1003.2
2019-03-16T00:46:48.970Z,1003.2
2019-03-16T00:47:50.449Z,1003.2
2019-03-16T00:48:52.152Z,1003.2
2019-03-16T00:49:53.850Z,1003.1
2019-03-16T00:50:55.654Z,1003.1
2019-03-16T00:51:57.374Z,1003.1
2019-03-16T00:52:59.152Z,1003.1
2019-03-16T00:54:00.579Z,1003.1
2019-03-16T00:55:02.142Z,1003.1
2019-03-16T00:56:03.656Z,1003.1
2019-03-16T00:57:05.263Z,1003.0
2019-03-16T00:58:06.835Z,1003.0
2019-03-16T00:59:09.747Z,1003.1
2019-03-16T01:00:11.838Z,1003.1
2019-03-16T01:01:13.808Z,1003.2
2019-03-16T01:02:26.425Z,1003.2
2019-03-16T01:03:17.151Z,1003.2
2019-03-16T01:04:18.826Z,1003.2
2019-03-16T01:05:20.472Z,1003.1
2019-03-16T01:06:21.897Z,1003.1
2019-03-16T01:07:23.636Z,1003.2
2019-03-16T01:08:25.434Z,1003.2
2019-03-16T01:09:26.888Z,1003.2
2019-03-16T01:10:28.852Z,1003.2
2019-03-16T01:11:30.282Z,1003.1
2019-03-16T01:12:31.718Z,1003.0
2019-03-16T01:13:33.784Z,1003.0
2019-03-16T01:14:35.213Z,1003.0
2019-03-16T01:15:37.208Z,1003.1
2019-03-16T01:16:38.976Z,1003.1
2019-03-16T01:17:40.732Z,1003.2
2019-03-16T01:18:42.173Z,1003.2
2019-03-16T01:19:44.186Z,1003.3
2019-03-16T01:20:45.731Z,1003.2
2019-03-16T01:21:47.459Z,1003.3
2019-03-16T01:22:48.883Z,1003.2
2019-03-16T01:23:50.510Z,1003.2
2019-03-16T01:24:52.043Z,1003.2
2019-03-16T01:25:53.739Z,1003.1
2019-03-16T01:26:55.155Z,1003.1
2019-03-16T01:27:56.677Z,1003.2
2019-03-16T01:28:58.317Z,1003.2
2019-03-16T01:29:59.824Z,1003.2
2019-03-16T01:31:01.326Z,1003.2
2019-03-16T01:32:03.097Z,1003.2
2019-03-16T01:33:04.755Z,1003.2
2019-03-16T01:34:06.399Z,1003.2
2019-03-16T01:35:07.929Z,1003.2
2019-03-16T01:36:09.370Z,1003.2
2019-03-16T01:37:10.993Z,1003.2
2019-03-16T01:38:12.778Z,1003.2
2019-03-16T01:39:14.431Z,1003.2
2019-03-16T01:40:15.993Z,1003.2
2019-03-16T01:41:17.879Z,1003.2
2019-03-16T01:42:19.469Z,1003.2
2019-03-16T01:43:21.084Z,1003.2
2019-03-16T01:44:22.841Z,1003.3
2019-03-16T01:45:24.426Z,1003.2
2019-03-16T01:46:26.159Z,1003.2
2019-03-16T01:47:27.702Z,1003.1
2019-03-16T01:48:29.129Z,1003.1
2019-03-16T01:49:30.911Z,1003.1
2019-03-16T01:50:32.393Z,1003.2
2019-03-16T01:51:34.026Z,1003.2
2019-03-16T01:52:35.888Z,1003.2
2019-03-16T01:53:37.374Z,1003.2
2019-03-16T01:54:38.978Z,1003.2
2019-03-16T01:55:40.665Z,1003.2
2019-03-16T01:56:42.303Z,1003.1
2019-03-16T01:57:43.851Z,1003.2
2019-03-16T01:58:45.779Z,1003.3
2019-03-16T01:59:47.357Z,1003.3
2019-03-16T02:00:48.847Z,1003.3
2019-03-16T02:01:50.741Z,1003.3
2019-03-16T02:02:55.484Z,1003.3
2019-03-16T02:03:53.875Z,1003.4
2019-03-16T02:04:56.058Z,1003.3
2019-03-16T02:05:58.100Z,1003.2
2019-03-16T02:06:59.861Z,1003.2
2019-03-16T02:08:02.016Z,1003.3
2019-03-16T02:09:03.462Z,1003.3
2019-03-16T02:10:04.886Z,1003.3
2019-03-16T02:11:06.557Z,1003.3
2019-03-16T02:12:08.175Z,1003.2
2019-03-16T02:13:09.587Z,1003.2
2019-03-16T02:14:11.580Z,1003.2
2019-03-16T02:15:13.147Z,1003.2
2019-03-16T02:16:16.068Z,1003.2
2019-03-16T02:17:17.723Z,1003.2
2019-03-16T02:18:19.574Z,1003.3
2019-03-16T02:19:21.215Z,1003.3
2019-03-16T02:20:22.776Z,1003.2
2019-03-16T02:21:24.676Z,1003.2
2019-03-16T02:22:26.329Z,1003.2
2019-03-16T02:23:27.901Z,1003.2
2019-03-16T02:24:29.724Z,1003.2
2019-03-16T02:25:31.323Z,1003.2
2019-03-16T02:26:33.581Z,1003.1
2019-03-16T02:27:35.306Z,1003.1
2019-03-16T02:28:37.110Z,1003.2
2019-03-16T02:29:38.854Z,1003.1
2019-03-16T02:30:40.353Z,1003.2
2019-03-16T02:31:41.796Z,1003.1
2019-03-16T02:32:43.442Z,1003.1
2019-03-16T02:33:44.980Z,1003.1
2019-03-16T02:34:46.819Z,1003.1
2019-03-16T02:35:48.292Z,1003.1
2019-03-16T02:36:50.011Z,1003.1
2019-03-16T02:37:51.590Z,1003.1
2019-03-16T02:38:53.480Z,1003.1
2019-03-16T02:39:55.797Z,1003.2
2019-03-16T02:40:57.574Z,1003.3
2019-03-16T02:41:59.267Z,1003.3
2019-03-16T02:43:00.779Z,1003.4
2019-03-16T02:44:02.511Z,1003.4
2019-03-16T02:45:04.307Z,1003.3
2019-03-16T02:46:05.953Z,1003.2
2019-03-16T02:47:07.746Z,1003.2
2019-03-16T02:48:09.404Z,1003.1
2019-03-16T02:49:11.248Z,1003.1
2019-03-16T02:50:14.283Z,1003.0
2019-03-16T02:51:15.860Z,1003.1
2019-03-16T02:52:17.591Z,1003.1
2019-03-16T02:53:19.350Z,1003.2
2019-03-16T02:54:20.985Z,1003.2
2019-03-16T02:55:22.742Z,1003.2
2019-03-16T02:56:24.513Z,1003.3
2019-03-16T02:57:26.245Z,1003.3
2019-03-16T02:58:28.085Z,1003.3
2019-03-16T02:59:29.528Z,1003.3
2019-03-16T03:00:30.965Z,1003.2
2019-03-16T03:01:32.812Z,1003.1
2019-03-16T03:02:34.270Z,1003.1
2019-03-16T03:03:35.779Z,1003.0
2019-03-16T03:04:37.508Z,1003.0
2019-03-16T03:05:38.993Z,1002.9
2019-03-16T03:06:40.738Z,1003.0
2019-03-16T03:07:42.260Z,1003.1
2019-03-16T03:08:43.993Z,1003.1
2019-03-16T03:09:45.871Z,1003.1
2019-03-16T03:10:47.406Z,1003.1
2019-03-16T03:11:48.834Z,1003.1
2019-03-16T03:12:50.480Z,1003.1
2019-03-16T03:13:52.063Z,1003.1
2019-03-16T03:14:53.704Z,1003.1
2019-03-16T03:15:55.215Z,1003.2
2019-03-16T03:16:57.254Z,1003.2
2019-03-16T03:17:58.737Z,1003.1
2019-03-16T03:19:00.531Z,1003.1
2019-03-16T03:20:02.013Z,1003.1
2019-03-16T03:21:03.567Z,1003.1
2019-03-16T03:22:05.019Z,1003.1
2019-03-16T03:23:06.681Z,1003.2
2019-03-16T03:24:08.567Z,1003.2
2019-03-16T03:25:10.507Z,1003.2
2019-03-16T03:26:12.209Z,1003.2
2019-03-16T03:27:13.885Z,1003.2
2019-03-16T03:28:16.135Z,1003.2
2019-03-16T03:29:18.021Z,1003.2
2019-03-16T03:30:19.671Z,1003.2
2019-03-16T03:31:22.181Z,1003.2
2019-03-16T03:32:24.044Z,1003.2
2019-03-16T03:33:25.839Z,1003.3
2019-03-16T03:34:27.469Z,1003.3
2019-03-16T03:35:29.404Z,1003.3
2019-03-16T03:36:30.435Z,1003.3
2019-03-16T03:37:32.159Z,1003.3
2019-03-16T03:38:33.727Z,1003.3
2019-03-16T03:39:35.128Z,1003.3
2019-03-16T03:40:36.853Z,1003.3
2019-03-16T03:41:38.297Z,1003.3
2019-03-16T03:42:39.809Z,1003.2
2019-03-16T03:43:41.437Z,1003.2
2019-03-16T03:44:42.887Z,1003.1
2019-03-16T03:45:44.534Z,1003.2
2019-03-16T03:46:46.028Z,1003.2
2019-03-16T03:47:47.790Z,1003.3
2019-03-16T03:48:49.191Z,1003.3
2019-03-16T03:49:50.704Z,1003.3
2019-03-16T03:50:52.337Z,1003.3
2019-03-16T03:51:53.868Z,1003.2
2019-03-16T03:52:55.376Z,1003.3
2019-03-16T03:53:57.121Z,1003.3
2019-03-16T03:54:58.688Z,1003.3
2019-03-16T03:56:00.584Z,1003.3
2019-03-16T03:57:02.042Z,1003.3
2019-03-16T03:58:03.878Z,1003.3
2019-03-16T03:59:05.683Z,1003.3
2019-03-16T04:00:07.979Z,1003.3
2019-03-16T04:01:09.569Z,1003.3
2019-03-16T04:02:11.596Z,1003.3
2019-03-16T04:03:13.124Z,1003.3
2019-03-16T04:04:16.081Z,1003.2
2019-03-16T04:05:16.834Z,1003.3
2019-03-16T04:06:18.348Z,1003.3
2019-03-16T04:07:20.538Z,1003.3
2019-03-16T04:08:21.900Z,1003.3
2019-03-16T04:09:23.694Z,1003.3
2019-03-16T04:10:25.673Z,1003.3
2019-03-16T04:11:27.347Z,1003.3
2019-03-16T04:12:29.375Z,1003.3
2019-03-16T04:13:30.927Z,1003.3
2019-03-16T04:14:32.488Z,1003.2
2019-03-16T04:15:34.062Z,1003.3
2019-03-16T04:16:35.546Z,1003.3
2019-03-16T04:17:37.094Z,1003.2
2019-03-16T04:18:38.784Z,1003.3
2019-03-16T04:19:40.215Z,1003.3
2019-03-16T04:20:42.024Z,1003.3
2019-03-16T04:21:43.446Z,1003.3
2019-03-16T04:22:45.138Z,1003.3
2019-03-16T04:23:46.558Z,1003.3
2019-03-16T04:24:48.242Z,1003.3
2019-03-16T04:25:49.648Z,1003.3
2019-03-16T04:26:51.360Z,1003.3
2019-03-16T04:27:52.967Z,1003.3
2019-03-16T04:28:54.669Z,1003.2
2019-03-16T04:29:56.164Z,1003.3
2019-03-16T04:30:57.953Z,1003.3
2019-03-16T04:31:59.571Z,1003.3
2019-03-16T04:33:01.212Z,1003.3
2019-03-16T04:34:02.759Z,1003.3
2019-03-16T04:35:04.370Z,1003.3
2019-03-16T04:36:06.142Z,1003.3
2019-03-16T04:37:07.606Z,1003.2
2019-03-16T04:38:09.208Z,1003.3
2019-03-16T04:39:10.869Z,1003.2
2019-03-16T04:40:12.322Z,1003.2
2019-03-16T04:41:13.927Z,1003.3
2019-03-16T04:42:15.849Z,1003.2
2019-03-16T04:43:17.465Z,1003.3
2019-03-16T04:44:19.178Z,1003.3
2019-03-16T04:45:21.144Z,1003.3
2019-03-16T04:46:22.645Z,1003.2
2019-03-16T04:47:24.510Z,1003.2
2019-03-16T04:48:26.087Z,1003.3
2019-03-16T04:49:27.823Z,1003.2
2019-03-16T04:50:29.459Z,1003.2
2019-03-16T04:51:31.738Z,1003.3
2019-03-16T04:52:33.304Z,1003.2
2019-03-16T04:53:35.011Z,1003.2
2019-03-16T04:54:36.661Z,1003.2
2019-03-16T04:55:38.574Z,1003.2
2019-03-16T04:56:40.238Z,1003.2
2019-03-16T04:57:41.956Z,1003.2
2019-03-16T04:58:43.389Z,1003.2
2019-03-16T04:59:44.996Z,1003.2
2019-03-16T05:00:46.426Z,1003.3
2019-03-16T05:01:48.309Z,1003.3
2019-03-16T05:02:49.946Z,1003.2
2019-03-16T05:03:51.419Z,1003.2
2019-03-16T05:04:52.956Z,1003.3
2019-03-16T05:05:54.735Z,1003.2
2019-03-16T05:06:56.262Z,1003.2
2019-03-16T05:07:57.682Z,1003.2
2019-03-16T05:08:59.440Z,1003.2
2019-03-16T05:10:00.916Z,1003.2
2019-03-16T05:11:02.380Z,1003.2
2019-03-16T05:12:04.165Z,1003.2
2019-03-16T05:13:05.602Z,1003.2
2019-03-16T05:14:07.049Z,1003.1
2019-03-16T05:15:08.680Z,1003.1
2019-03-16T05:16:10.139Z,1003.1
2019-03-16T05:17:11.553Z,1003.1
2019-03-16T05:18:13.176Z,1003.0
2019-03-16T05:19:14.745Z,1003.1
2019-03-16T05:20:16.238Z,1003.1
2019-03-16T05:21:17.924Z,1003.0
2019-03-16T05:22:19.418Z,1003.0
2019-03-16T05:23:20.866Z,1003.0
2019-03-16T05:24:22.694Z,1003.1
2019-03-16T05:25:24.145Z,1003.1
2019-03-16T05:26:25.681Z,1003.1
2019-03-16T05:27:27.436Z,1003.0
2019-03-16T05:28:28.904Z,1003.0
2019-03-16T05:29:30.415Z,1003.0
2019-03-16T05:30:32.243Z,1003.0
2019-03-16T05:31:33.779Z,1003.0
2019-03-16T05:32:35.235Z,1003.0
2019-03-16T05:33:36.889Z,1003.0
2019-03-16T05:34:38.325Z,1002.9
2019-03-16T05:35:40.119Z,1002.9
2019-03-16T05:36:41.982Z,1002.9
2019-03-16T05:37:43.395Z,1002.9
2019-03-16T05:38:45.010Z,1002.9
2019-03-16T05:39:46.767Z,1002.9
2019-03-16T05:40:48.368Z,1003.0
2019-03-16T05:41:49.854Z,1002.9
2019-03-16T05:42:51.502Z,1002.9
2019-03-16T05:43:52.819Z,1002.9
2019-03-16T05:44:54.265Z,1003.0
2019-03-16T05:45:56.072Z,1003.0
2019-03-16T05:46:57.577Z,1002.9
2019-03-16T05:47:59.257Z,1002.9
2019-03-16T05:49:00.957Z,1002.9
2019-03-16T05:50:02.483Z,1002.9
2019-03-16T05:51:03.956Z,1003.0
2019-03-16T05:52:05.719Z,1003.0
2019-03-16T05:53:07.135Z,1003.0
2019-03-16T05:54:08.705Z,1002.9
2019-03-16T05:55:10.356Z,1002.9
2019-03-16T05:56:12.154Z,1002.8
2019-03-16T05:57:13.722Z,1002.8
2019-03-16T05:58:15.502Z,1002.8
2019-03-16T05:59:17.071Z,1002.8
2019-03-16T06:00:18.739Z,1002.9
2019-03-16T06:01:20.417Z,1002.8
2019-03-16T06:02:22.455Z,1002.8
2019-03-16T06:03:23.898Z,1002.8
2019-03-16T06:04:25.966Z,1002.8
2019-03-16T06:05:27.382Z,1002.9
2019-03-16T06:06:29.041Z,1002.8
2019-03-16T06:07:30.527Z,1002.8
2019-03-16T06:08:32.388Z,1002.8
2019-03-16T06:09:34.072Z,1002.8
2019-03-16T06:10:35.876Z,1002.8
2019-03-16T06:11:37.467Z,1002.8
2019-03-16T06:12:39.080Z,1002.8
2019-03-16T06:13:40.987Z,1002.9
2019-03-16T06:14:42.532Z,1002.8
2019-03-16T06:15:44.123Z,1002.9
2019-03-16T06:16:46.091Z,1002.9
2019-03-16T06:17:47.630Z,1002.9
2019-03-16T06:18:49.346Z,1002.9
2019-03-16T06:19:50.885Z,1002.9
2019-03-16T06:20:52.595Z,1002.8
2019-03-16T06:21:54.195Z,1002.8
2019-03-16T06:22:55.844Z,1002.8
2019-03-16T06:23:57.352Z,1002.8
2019-03-16T06:24:59.156Z,1002.8
2019-03-16T06:26:00.690Z,1002.8
2019-03-16T06:27:02.414Z,1002.8
2019-03-16T06:28:03.927Z,1002.8
2019-03-16T06:29:05.917Z,1002.8
2019-03-16T06:30:07.490Z,1002.7
2019-03-16T06:31:09.028Z,1002.8
2019-03-16T06:32:10.673Z,1002.7
2019-03-16T06:33:12.213Z,1002.7
2019-03-16T06:34:13.651Z,1002.7
2019-03-16T06:35:24.340Z,1002.6
2019-03-16T06:36:17.466Z,1002.7
2019-03-16T06:37:19.219Z,1002.7
2019-03-16T06:38:23.827Z,1002.7
2019-03-16T06:39:25.206Z,1002.7
2019-03-16T06:40:27.082Z,1002.7
2019-03-16T06:41:28.836Z,1002.8
2019-03-16T06:42:30.501Z,1002.8
2019-03-16T06:43:32.132Z,1002.8
2019-03-16T06:44:33.706Z,1002.7
2019-03-16T06:45:35.326Z,1002.8
2019-03-16T06:46:37.164Z,1002.8
2019-03-16T06:47:38.697Z,1002.7
2019-03-16T06:48:40.309Z,1002.8
2019-03-16T06:49:42.060Z,1002.8
2019-03-16T06:50:43.621Z,1002.7
2019-03-16T06:51:45.162Z,1002.8
2019-03-16T06:52:46.959Z,1002.8
2019-03-16T06:53:48.589Z,1002.8
2019-03-16T06:54:50.238Z,1002.7
2019-03-16T06:55:51.887Z,1002.7
2019-03-16T06:56:53.302Z,1002.7
2019-03-16T06:57:55.091Z,1002.6
2019-03-16T06:58:58.441Z,1002.7
2019-03-16T06:59:58.156Z,1002.6
2019-03-16T07:00:59.632Z,1002.6
2019-03-16T07:02:01.107Z,1002.7
2019-03-16T07:03:02.855Z,1002.7
2019-03-16T07:04:04.333Z,1002.7
2019-03-16T07:05:05.810Z,1002.6
2019-03-16T07:06:07.618Z,1002.6
2019-03-16T07:07:09.078Z,1002.6
2019-03-16T07:08:10.609Z,1002.6
2019-03-16T07:09:12.298Z,1002.6
2019-03-16T07:10:13.819Z,1002.6
2019-03-16T07:11:15.301Z,1002.6
2019-03-16T07:12:17.095Z,1002.5
2019-03-16T07:13:18.626Z,1002.5
2019-03-16T07:14:20.488Z,1002.5
2019-03-16T07:15:22.254Z,1002.4
2019-03-16T07:16:23.715Z,1002.4
2019-03-16T07:17:25.216Z,1002.5
2019-03-16T07:18:26.940Z,1002.4
2019-03-16T07:19:28.402Z,1002.4
2019-03-16T07:20:29.907Z,1002.4
2019-03-16T07:21:31.608Z,1002.4
2019-03-16T07:22:33.126Z,1002.4
2019-03-16T07:23:34.880Z,1002.4
2019-03-16T07:24:36.486Z,1002.3
2019-03-16T07:25:38.258Z,1002.3
2019-03-16T07:26:39.793Z,1002.2
2019-03-16T07:27:41.229Z,1002.2
2019-03-16T07:28:44.362Z,1002.3
2019-03-16T07:29:46.190Z,1002.3
2019-03-16T07:30:47.701Z,1002.2
2019-03-16T07:31:49.273Z,1002.3
2019-03-16T07:32:50.986Z,1002.2
2019-03-16T07:33:52.396Z,1002.2
2019-03-16T07:34:54.000Z,1002.2
2019-03-16T07:35:55.444Z,1002.2
2019-03-16T07:36:56.910Z,1002.2
2019-03-16T07:37:58.535Z,1002.1
2019-03-16T07:39:00.017Z,1002.1
2019-03-16T07:40:01.483Z,1002.2
2019-03-16T07:41:03.134Z,1002.1
2019-03-16T07:42:04.682Z,1002.2
2019-03-16T07:43:06.486Z,1002.2
2019-03-16T07:44:08.081Z,1002.1
2019-03-16T07:45:11.614Z,1002.1
2019-03-16T07:46:13.117Z,1002.1
2019-03-16T07:47:14.943Z,1002.1
2019-03-16T07:48:16.629Z,1002.1
2019-03-16T07:49:18.370Z,1002.0
2019-03-16T07:50:19.942Z,1002.1
2019-03-16T07:51:21.652Z,1002.1
2019-03-16T07:52:23.558Z,1002.0
2019-03-16T07:53:25.302Z,1002.0
2019-03-16T07:54:26.815Z,1002.1
2019-03-16T07:55:28.524Z,1002.0
2019-03-16T07:56:30.006Z,1002.1
2019-03-16T07:57:39.930Z,1002.0
2019-03-16T07:58:33.416Z,1002.0
2019-03-16T07:59:36.999Z,1002.0
2019-03-16T08:00:36.495Z,1002.0
2019-03-16T08:01:38.155Z,1002.0
2019-03-16T08:02:39.697Z,1002.0
2019-03-16T08:03:41.646Z,1002.0
2019-03-16T08:04:43.709Z,1002.0
2019-03-16T08:05:45.256Z,1002.1
2019-03-16T08:06:46.805Z,1002.1
2019-03-16T08:07:49.653Z,1002.1
2019-03-16T08:08:51.154Z,1002.1
2019-03-16T08:09:53.066Z,1002.1
2019-03-16T08:10:54.866Z,1002.2
2019-03-16T08:11:56.508Z,1002.1
2019-03-16T08:12:58.308Z,1002.1
2019-03-16T08:14:00.472Z,1002.1
2019-03-16T08:15:01.994Z,1002.0
2019-03-16T08:16:03.767Z,1002.0
2019-03-16T08:17:05.420Z,1002.0
2019-03-16T08:18:07.976Z,1002.0
2019-03-16T08:19:08.841Z,1001.9
2019-03-16T08:20:10.476Z,1001.9
2019-03-16T08:21:12.100Z,1001.9
2019-03-16T08:22:15.118Z,1001.9
2019-03-16T08:23:16.589Z,1001.9
2019-03-16T08:24:18.127Z,1001.9
2019-03-16T08:25:19.988Z,1001.8
2019-03-16T08:26:21.724Z,1001.9
2019-03-16T08:27:23.327Z,1001.9
2019-03-16T08:28:26.455Z,1001.8
2019-03-16T08:29:27.974Z,1001.8
2019-03-16T08:30:29.868Z,1001.9
2019-03-16T08:31:31.574Z,1001.8
2019-03-16T08:32:33.026Z,1001.8
2019-03-16T08:33:34.613Z,1001.8
2019-03-16T08:34:36.518Z,1001.8
2019-03-16T08:35:37.880Z,1001.8
2019-03-16T08:36:39.695Z,1001.8
2019-03-16T08:37:41.107Z,1001.8
2019-03-16T08:38:42.833Z,1001.8
2019-03-16T08:39:44.343Z,1001.8
2019-03-16T08:40:45.925Z,1001.8
2019-03-16T08:41:47.398Z,1001.8
2019-03-16T08:42:51.344Z,1001.8
2019-03-16T08:43:50.635Z,1001.8
2019-03-16T08:44:52.177Z,1001.7
2019-03-16T08:45:53.702Z,1001.7
2019-03-16T08:46:55.622Z,1001.7
2019-03-16T08:47:57.009Z,1001.7
2019-03-16T08:48:58.757Z,1001.7
2019-03-16T08:50:00.477Z,1001.7
2019-03-16T08:51:01.919Z,1001.7
2019-03-16T08:52:03.383Z,1001.7
2019-03-16T08:53:05.041Z,1001.7
2019-03-16T08:54:06.444Z,1001.7
2019-03-16T08:55:07.883Z,1001.7
2019-03-16T08:56:09.510Z,1001.6
2019-03-16T08:57:10.917Z,1001.7
2019-03-16T08:58:12.336Z,1001.6
2019-03-16T08:59:14.089Z,1001.7
2019-03-16T09:00:15.543Z,1001.7
2019-03-16T09:01:16.976Z,1001.6
2019-03-16T09:02:18.637Z,1001.7
2019-03-16T09:03:20.033Z,1001.7
2019-03-16T09:04:21.492Z,1001.6
2019-03-16T09:05:23.093Z,1001.7
2019-03-16T09:06:24.537Z,1001.7
2019-03-16T09:07:25.936Z,1001.7
2019-03-16T09:08:27.619Z,1001.7
2019-03-16T09:09:29.039Z,1001.8
2019-03-16T09:10:30.739Z,1001.7
2019-03-16T09:11:32.215Z,1001.8
2019-03-16T09:12:33.836Z,1001.8
2019-03-16T09:13:35.329Z,1001.7
2019-03-16T09:14:36.857Z,1001.8
2019-03-16T09:15:38.275Z,1001.8
2019-03-16T09:16:39.951Z,1001.9
2019-03-16T09:17:41.348Z,1001.8
2019-03-16T09:18:43.073Z,1001.9
2019-03-16T09:19:44.479Z,1001.9
2019-03-16T09:20:46.129Z,1001.8
2019-03-16T09:21:47.536Z,1001.8
2019-03-16T09:22:49.211Z,1001.9
2019-03-16T09:23:50.653Z,1001.7
2019-03-16T09:24:52.279Z,1001.7
2019-03-16T09:25:53.763Z,1001.8
2019-03-16T09:26:55.444Z,1001.8
2019-03-16T09:27:56.925Z,1001.8
2019-03-16T09:29:00.208Z,1001.8
2019-03-16T09:29:59.895Z,1001.8
2019-03-16T09:31:01.327Z,1001.8
2019-03-16T09:32:02.751Z,1001.8
2019-03-16T09:33:04.465Z,1001.8
2019-03-16T09:34:05.849Z,1001.8
2019-03-16T09:35:07.267Z,1001.8
2019-03-16T09:36:08.979Z,1001.6
2019-03-16T09:37:10.416Z,1001.7
2019-03-16T09:38:11.811Z,1001.8
2019-03-16T09:39:13.474Z,1001.7
2019-03-16T09:40:14.888Z,1001.8
2019-03-16T09:41:16.635Z,1001.7
2019-03-16T09:42:18.438Z,1001.7
2019-03-16T09:43:20.194Z,1001.6
2019-03-16T09:44:21.613Z,1001.8
2019-03-16T09:45:23.379Z,1001.7
2019-03-16T09:46:24.780Z,1001.7
2019-03-16T09:47:26.515Z,1001.7
2019-03-16T09:48:28.053Z,1001.6
2019-03-16T09:49:29.813Z,1001.7
2019-03-16T09:50:31.375Z,1001.6
2019-03-16T09:51:33.105Z,1001.7
2019-03-16T09:52:34.693Z,1001.7
2019-03-16T09:53:36.399Z,1001.6
2019-03-16T09:54:38.176Z,1001.6
2019-03-16T09:55:39.693Z,1001.7
2019-03-16T09:56:41.508Z,1001.7
2019-03-16T09:57:43.039Z,1001.5
2019-03-16T09:58:44.591Z,1001.5
2019-03-16T09:59:46.309Z,1001.6
2019-03-16T10:00:47.837Z,1001.5
2019-03-16T10:01:49.682Z,1001.5
2019-03-16T10:03:15.979Z,1001.6
2019-03-16T10:04:17.546Z,1001.5
2019-03-16T10:05:20.707Z,1001.5
2019-03-16T10:06:22.394Z,1001.5
2019-03-16T10:07:44.350Z,1001.5
2019-03-16T10:11:32.659Z,1001.4
2019-03-16T10:12:36.439Z,1001.4
2019-03-16T10:13:40.970Z,1001.4
2019-03-16T10:14:46.967Z,1001.3
2019-03-16T10:15:57.761Z,1001.4
2019-03-16T10:17:11.544Z,1001.4
2019-03-16T10:18:13.001Z,1001.2
2019-03-16T10:19:14.673Z,1001.3
2019-03-16T10:20:16.214Z,1001.3
2019-03-16T10:21:18.810Z,1001.3
2019-03-16T10:22:19.702Z,1001.3
2019-03-16T10:23:21.529Z,1001.2
2019-03-16T10:24:23.016Z,1001.3
2019-03-16T10:25:24.597Z,1001.2
2019-03-16T10:26:26.622Z,1001.2
2019-03-16T10:27:30.052Z,1001.2
2019-03-16T10:28:42.939Z,1001.2
2019-03-16T10:29:33.392Z,1001.2
2019-03-16T10:30:34.974Z,1001.2
2019-03-16T10:31:36.768Z,1001.2
2019-03-16T10:32:38.253Z,1001.2
2019-03-16T10:33:41.134Z,1001.2
2019-03-16T10:34:45.434Z,1001.2
2019-03-16T10:35:46.871Z,1001.2
2019-03-16T10:36:48.507Z,1001.2
2019-03-16T10:37:51.706Z,1001.2
2019-03-16T10:38:53.215Z,1001.1
2019-03-16T10:39:54.838Z,1001.2
2019-03-16T10:40:56.821Z,1001.1
2019-03-16T10:41:58.474Z,1001.2
2019-03-16T10:43:00.027Z,1001.3
2019-03-16T10:44:01.857Z,1001.3
2019-03-16T10:45:03.509Z,1001.3
2019-03-16T10:46:08.124Z,1001.2
2019-03-16T10:47:06.955Z,1001.1
2019-03-16T10:48:08.845Z,1001.3
2019-03-16T10:49:10.389Z,1001.2
2019-03-16T10:50:15.641Z,1001.3
2019-03-16T10:51:17.166Z,1001.2
2019-03-16T10:52:18.815Z,1001.1
2019-03-16T10:53:20.464Z,1001.1
2019-03-16T10:58:35.936Z,1001.2
2019-03-16T11:01:38.314Z,1001.1
2019-03-16T11:03:45.327Z,1001.1
2019-03-16T11:05:34.825Z,1000.9
2019-03-16T11:06:49.600Z,1000.9
2019-03-16T11:10:19.773Z,1000.9
2019-03-16T11:11:46.653Z,1001.0
2019-03-16T11:13:02.149Z,1001.0
2019-03-16T11:14:04.927Z,1001.0
2019-03-16T11:15:12.536Z,1000.9
2019-03-16T11:17:20.687Z,1000.9
2019-03-16T11:18:30.800Z,1001.0
2019-03-16T11:20:56.320Z,1001.0
2019-03-16T11:22:00.548Z,1001.0
2019-03-16T11:23:21.047Z,1001.0
2019-03-16T11:24:25.670Z,1001.0
2019-03-16T11:26:08.745Z,1000.9
2019-03-16T11:29:09.331Z,1000.9
2019-03-16T11:30:15.526Z,1001.0
2019-03-16T11:31:18.411Z,1000.9
2019-03-16T11:32:22.509Z,1000.9
2019-03-16T11:33:25.816Z,1000.9
2019-03-16T11:34:31.190Z,1000.8
2019-03-16T11:35:32.800Z,1000.8
2019-03-16T11:36:34.388Z,1000.9
2019-03-16T11:37:36.043Z,1000.9
2019-03-16T11:38:39.463Z,1000.8
2019-03-16T11:39:40.698Z,1000.9
2019-03-16T11:40:42.142Z,1000.9
2019-03-16T11:41:43.931Z,1000.9
2019-03-16T11:42:45.485Z,1000.8
2019-03-16T11:43:47.047Z,1000.9
2019-03-16T11:44:52.385Z,1000.9
2019-03-16T11:45:58.825Z,1000.8
2019-03-16T11:47:04.489Z,1000.9
2019-03-16T11:48:14.564Z,1000.8
2019-03-16T11:49:16.172Z,1000.8
2019-03-16T11:50:22.189Z,1000.8
2019-03-16T11:51:25.333Z,1000.8
2019-03-16T11:52:31.567Z,1000.8
2019-03-16T11:53:33.318Z,1000.8
2019-03-16T11:54:42.348Z,1000.8
2019-03-16T11:55:43.947Z,1000.8
2019-03-16T11:56:45.409Z,1000.7
2019-03-16T11:57:46.955Z,1000.7
2019-03-16T11:58:48.872Z,1000.7
2019-03-16T11:59:50.464Z,1000.8
2019-03-16T12:00:51.944Z,1000.7
2019-03-16T12:02:04.618Z,1000.7
2019-03-16T12:02:55.223Z,1000.7
2019-03-16T12:03:56.962Z,1000.8
2019-03-16T12:04:58.435Z,1000.7
2019-03-16T12:05:59.928Z,1000.7
2019-03-16T12:07:01.636Z,1000.7
2019-03-16T12:08:03.150Z,1000.7
2019-03-16T12:09:04.620Z,1000.7
2019-03-16T12:10:06.144Z,1000.6
2019-03-16T12:11:07.637Z,1000.6
2019-03-16T12:12:09.116Z,1000.5
2019-03-16T12:13:17.149Z,1000.6
2019-03-16T12:14:12.461Z,1000.7
2019-03-16T12:15:14.266Z,1000.7
2019-03-16T12:16:15.897Z,1000.7
2019-03-16T12:17:18.191Z,1000.8
2019-03-16T12:18:19.766Z,1000.7
2019-03-16T12:19:21.232Z,1000.7
2019-03-16T12:20:23.553Z,1000.7
2019-03-16T12:21:25.105Z,1000.7
2019-03-16T12:22:26.623Z,1000.7
2019-03-16T12:23:28.271Z,1000.8
2019-03-16T12:24:29.861Z,1000.7
2019-03-16T12:25:31.387Z,1000.6
2019-03-16T12:26:34.252Z,1000.7
2019-03-16T12:27:36.014Z,1000.7
2019-03-16T12:28:37.544Z,1000.6
2019-03-16T12:29:39.598Z,1000.6
2019-03-16T12:30:41.270Z,1000.6
2019-03-16T12:31:43.597Z,1000.6
2019-03-16T12:32:46.608Z,1000.6
2019-03-16T12:33:47.839Z,1000.7
2019-03-16T12:35:01.234Z,1000.6
2019-03-16T12:36:04.760Z,1000.7
2019-03-16T12:37:20.807Z,1000.6
2019-03-16T12:38:22.485Z,1000.6
2019-03-16T12:39:24.244Z,1000.6
2019-03-16T12:40:25.749Z,1000.6
2019-03-16T12:41:31.747Z,1000.5
2019-03-16T12:42:33.193Z,1000.5
2019-03-16T12:43:37.244Z,1000.5
2019-03-16T12:44:38.772Z,1000.4
2019-03-16T12:45:40.417Z,1000.4
2019-03-16T12:46:48.098Z,1000.5
2019-03-16T12:47:49.858Z,1000.5
2019-03-16T12:48:51.582Z,1000.5
2019-03-16T12:49:53.109Z,1000.5
2019-03-16T12:51:07.038Z,1000.5
2019-03-16T12:52:10.505Z,1000.4
2019-03-16T12:53:12.000Z,1000.4
2019-03-16T12:54:13.630Z,1000.4
2019-03-16T12:55:15.155Z,1000.3
2019-03-16T12:56:16.712Z,1000.5
2019-03-16T12:57:18.607Z,1000.5
2019-03-16T12:58:20.239Z,1000.4
2019-03-16T12:59:22.040Z,1000.4
2019-03-16T13:00:23.988Z,1000.6
2019-03-16T13:01:25.714Z,1000.3
2019-03-16T13:02:27.379Z,1000.4
2019-03-16T13:03:29.520Z,1000.4
2019-03-16T13:04:31.169Z,1000.4
2019-03-16T13:05:32.838Z,1000.4
2019-03-16T13:06:34.713Z,1000.3
2019-03-16T13:07:36.396Z,1000.4
2019-03-16T13:08:38.019Z,1000.3
2019-03-16T13:09:42.141Z,1000.4
2019-03-16T13:10:41.580Z,1000.4
2019-03-16T13:11:43.333Z,1000.3
2019-03-16T13:12:45.243Z,1000.3